Mehama, Oregon
Current Conditions -  °F | °C
As of 1:56 PM on Friday 24 Oct 2014 (Local Time) from KSLE Reporting Station
Light Rain Light Rain  
Wind Chill: 12°   Ceiling: 7000
Heat Index: 12°   Visibility: 7mi
Dew Point: 11°   Wind: 7mph
Humidity: 93%   Direction: 330°NNW
Pressure: 29.89"   Gusts: NA
Location:  44.79°N, 122.62°W
Report Text: KSLE 242056Z 33006KT 7SM -RA FEW009 OVC070 12/11 A2989 RMK AO2 SLP121 P0003 60005 T01170106 58016
Loading
Personal Weather Stations






























Interactive Weather Map
Tropical Storm Tracking
New forecast layout! Learn more

10-Day Weather Forecast

Advertisements
Track Severe Weather on mobile